createdAt,value
2022-10-25T00:01:45.566Z,13.16
2022-10-25T00:04:12.798Z,13.13
2022-10-25T00:06:39.357Z,13.12
2022-10-25T00:09:05.802Z,13.13
2022-10-25T00:11:33.102Z,13.16
2022-10-25T00:14:02.477Z,13.12
2022-10-25T00:16:33.024Z,13.13
2022-10-25T00:18:59.496Z,13.09
2022-10-25T00:21:25.955Z,13.08
2022-10-25T00:23:53.050Z,13.09
2022-10-25T00:26:20.660Z,13.12
2022-10-25T00:28:47.997Z,13.03
2022-10-25T00:31:16.261Z,13.04
2022-10-25T00:33:44.952Z,13.03
2022-10-25T00:36:17.150Z,13.05
2022-10-25T00:38:44.936Z,13.07
2022-10-25T00:41:13.006Z,13.04
2022-10-25T00:43:45.658Z,12.97
2022-10-25T00:46:20.481Z,13.01
2022-10-25T00:49:03.773Z,12.98
2022-10-25T00:51:45.923Z,12.99
2022-10-25T00:54:18.500Z,12.99
2022-10-25T00:56:48.096Z,12.94
2022-10-25T00:59:18.904Z,13.01
2022-10-25T01:01:45.470Z,13.02
2022-10-25T01:04:15.545Z,13.05
2022-10-25T01:06:50.130Z,13.02
2022-10-25T01:09:26.354Z,12.98
2022-10-25T01:11:52.824Z,13.01
2022-10-25T01:14:20.038Z,13.01
2022-10-25T01:17:33.309Z,12.93
2022-10-25T01:20:00.660Z,12.95
2022-10-25T01:22:43.345Z,12.96
2022-10-25T01:25:43.799Z,12.86
2022-10-25T01:28:25.331Z,12.86
2022-10-25T01:31:20.562Z,12.96
2022-10-25T01:34:40.686Z,12.98
2022-10-25T01:37:25.272Z,12.88
2022-10-25T01:40:06.714Z,12.99
2022-10-25T01:42:49.340Z,12.99
2022-10-25T01:45:32.505Z,12.88
2022-10-25T01:48:05.287Z,12.86
2022-10-25T01:50:36.622Z,12.96
2022-10-25T01:53:03.132Z,12.95
2022-10-25T01:55:48.778Z,12.93
2022-10-25T01:58:37.580Z,12.85
2022-10-25T02:01:31.769Z,13.02
2022-10-25T02:04:08.521Z,13.01
2022-10-25T02:07:08.831Z,13.02
2022-10-25T02:09:56.288Z,13.02
2022-10-25T02:12:32.998Z,12.87
2022-10-25T02:15:10.073Z,13.01
2022-10-25T02:17:46.893Z,13.00
2022-10-25T02:20:17.800Z,12.95
2022-10-25T02:22:46.144Z,12.96
2022-10-25T02:25:13.901Z,12.98
2022-10-25T02:27:41.376Z,12.96
2022-10-25T02:30:08.622Z,12.96
2022-10-25T02:32:35.579Z,12.90
2022-10-25T02:35:03.344Z,12.90
2022-10-25T02:37:30.586Z,12.95
2022-10-25T02:39:57.083Z,12.92
2022-10-25T02:42:24.512Z,12.94
2022-10-25T02:44:50.906Z,12.97
2022-10-25T02:47:17.300Z,12.93
2022-10-25T02:49:43.758Z,12.90
2022-10-25T02:52:10.220Z,12.87
2022-10-25T02:54:36.618Z,12.87
2022-10-25T02:57:03.077Z,12.87
2022-10-25T02:59:29.784Z,12.84
2022-10-25T03:01:56.315Z,12.91
2022-10-25T03:04:22.922Z,12.90
2022-10-25T03:06:49.319Z,12.80
2022-10-25T03:09:15.730Z,12.80
2022-10-25T03:11:42.237Z,12.78
2022-10-25T03:14:08.673Z,12.79
2022-10-25T03:16:35.124Z,12.74
2022-10-25T03:19:01.542Z,12.74
2022-10-25T03:21:28.031Z,12.74
2022-10-25T03:23:54.422Z,12.74
2022-10-25T03:26:20.763Z,12.75
2022-10-25T03:28:47.279Z,12.72
2022-10-25T03:31:16.148Z,12.68
2022-10-25T03:33:43.275Z,12.73
2022-10-25T03:36:10.407Z,12.72
2022-10-25T03:38:36.804Z,12.75
2022-10-25T03:41:03.632Z,12.73
2022-10-25T03:43:30.057Z,12.71
2022-10-25T03:45:56.544Z,12.66
2022-10-25T03:48:22.955Z,12.74
2022-10-25T03:50:50.420Z,12.64
2022-10-25T03:53:17.195Z,12.69
2022-10-25T03:55:43.668Z,12.65
2022-10-25T03:58:10.060Z,12.62
2022-10-25T04:00:36.467Z,12.65
2022-10-25T04:03:03.568Z,12.63
2022-10-25T04:05:31.261Z,12.63
2022-10-25T04:07:58.225Z,12.62
2022-10-25T04:10:25.377Z,12.61
2022-10-25T04:12:53.610Z,12.62
2022-10-25T04:15:22.147Z,12.61
2022-10-25T04:17:50.305Z,12.56
2022-10-25T04:20:17.303Z,12.53
2022-10-25T04:22:43.747Z,12.50
2022-10-25T04:25:10.155Z,12.41
2022-10-25T04:27:36.540Z,12.40
2022-10-25T04:30:03.260Z,12.47
2022-10-25T04:32:29.732Z,12.48
2022-10-25T04:34:56.267Z,12.48
2022-10-25T04:37:22.695Z,12.48
2022-10-25T04:39:49.089Z,12.47
2022-10-25T04:42:15.625Z,12.49
2022-10-25T04:44:41.989Z,12.50
2022-10-25T04:47:08.349Z,12.47
2022-10-25T04:49:34.695Z,12.44
2022-10-25T04:52:01.143Z,12.42
2022-10-25T04:54:27.567Z,12.41
2022-10-25T04:56:53.929Z,12.47
2022-10-25T04:59:20.337Z,12.39
2022-10-25T05:01:46.802Z,12.46
2022-10-25T05:04:13.219Z,12.43
2022-10-25T05:06:39.602Z,12.42
2022-10-25T05:09:05.971Z,12.41
2022-10-25T05:11:32.708Z,12.40
2022-10-25T05:13:59.170Z,12.42
2022-10-25T05:16:26.376Z,12.41
2022-10-25T05:18:55.203Z,12.29
2022-10-25T05:23:57.524Z,12.40
2022-10-25T05:26:26.230Z,12.41
2022-10-25T05:28:54.467Z,12.30
2022-10-25T05:31:26.689Z,12.38
2022-10-25T05:33:56.102Z,12.37
2022-10-25T05:36:23.522Z,12.39
2022-10-25T05:38:50.094Z,12.35
2022-10-25T05:41:17.890Z,12.36
2022-10-25T05:43:45.304Z,12.38
2022-10-25T05:46:14.495Z,12.33
2022-10-25T05:48:45.764Z,12.30
2022-10-25T05:51:33.850Z,12.19
2022-10-25T05:54:04.487Z,12.25
2022-10-25T05:56:32.532Z,12.28
2022-10-25T05:59:02.799Z,12.23
2022-10-25T06:01:29.358Z,12.21
2022-10-25T06:03:56.154Z,12.28
2022-10-25T06:06:23.394Z,12.28
2022-10-25T06:08:50.222Z,12.29
2022-10-25T06:11:19.303Z,12.34
2022-10-25T06:13:46.250Z,12.32
2022-10-25T06:16:18.514Z,12.34
2022-10-25T06:18:45.655Z,12.30
2022-10-25T06:21:15.421Z,12.23
2022-10-25T06:23:42.479Z,12.32
2022-10-25T06:26:26.108Z,12.16
2022-10-25T06:28:55.059Z,12.17
2022-10-25T06:31:21.713Z,12.29
2022-10-25T06:33:48.214Z,12.33
2022-10-25T06:36:17.286Z,12.32
2022-10-25T06:38:45.022Z,12.26
2022-10-25T06:41:13.758Z,12.29
2022-10-25T06:43:40.480Z,12.33
2022-10-25T06:46:08.565Z,12.35
2022-10-25T06:48:35.613Z,12.31
2022-10-25T06:51:06.873Z,12.35
2022-10-25T06:53:33.409Z,12.31
2022-10-25T06:56:05.532Z,12.35
2022-10-25T06:58:34.703Z,12.36
2022-10-25T07:01:06.044Z,12.38
2022-10-25T07:03:36.150Z,12.40
2022-10-25T07:06:03.605Z,12.42
2022-10-25T07:08:30.022Z,12.40
2022-10-25T07:10:56.895Z,12.43
2022-10-25T07:13:23.849Z,12.42
2022-10-25T07:15:50.694Z,12.40
2022-10-25T07:18:17.630Z,12.39
2022-10-25T07:20:48.578Z,12.34
2022-10-25T07:23:16.143Z,12.28
2022-10-25T07:25:42.877Z,12.32
2022-10-25T07:28:10.238Z,12.38
2022-10-25T07:30:36.600Z,12.40
2022-10-25T07:33:04.122Z,12.48
2022-10-25T07:35:35.515Z,12.50
2022-10-25T07:38:08.754Z,12.49
2022-10-25T07:40:35.138Z,12.57
2022-10-25T07:43:01.500Z,12.61
2022-10-25T07:45:30.499Z,12.64
2022-10-25T07:47:57.833Z,12.67
2022-10-25T07:50:24.211Z,12.67
2022-10-25T07:52:50.842Z,12.77
2022-10-25T07:55:18.335Z,12.83
2022-10-25T07:57:44.809Z,12.81
2022-10-25T08:00:11.890Z,12.84
2022-10-25T08:02:38.281Z,12.88
2022-10-25T08:05:04.917Z,12.93
2022-10-25T08:07:31.486Z,12.91
2022-10-25T08:09:57.873Z,13.08
2022-10-25T08:12:24.247Z,13.09
2022-10-25T08:14:50.701Z,13.11
2022-10-25T08:17:18.008Z,13.20
2022-10-25T08:19:48.753Z,13.20
2022-10-25T08:22:17.697Z,13.26
2022-10-25T08:24:44.151Z,13.27
2022-10-25T08:27:10.580Z,13.38
2022-10-25T08:29:36.957Z,13.34
2022-10-25T08:32:03.602Z,13.34
2022-10-25T08:34:32.419Z,13.46
2022-10-25T08:36:59.829Z,13.61
2022-10-25T08:39:26.248Z,13.76
2022-10-25T08:41:56.082Z,13.96
2022-10-25T08:45:05.052Z,13.98
2022-10-25T08:47:36.182Z,13.94
2022-10-25T08:50:17.738Z,13.97
2022-10-25T08:52:46.271Z,13.90
2022-10-25T08:55:58.841Z,13.98
2022-10-25T08:58:31.891Z,13.97
2022-10-25T09:01:02.645Z,13.95
2022-10-25T09:03:29.100Z,14.01
2022-10-25T09:05:59.984Z,14.35
2022-10-25T09:08:38.301Z,14.59
2022-10-25T09:11:26.179Z,14.46
2022-10-25T09:14:09.296Z,14.30
2022-10-25T09:16:50.362Z,14.21
2022-10-25T09:19:32.299Z,14.45
2022-10-25T09:22:11.721Z,14.50
2022-10-25T09:24:50.168Z,14.67
2022-10-25T09:27:26.058Z,14.89
2022-10-25T09:30:05.207Z,14.93
2022-10-25T09:32:36.864Z,15.13
2022-10-25T09:35:05.256Z,15.22
2022-10-25T09:38:22.178Z,15.54
2022-10-25T09:41:00.578Z,15.50
2022-10-25T09:43:32.612Z,15.36
2022-10-25T09:46:06.118Z,15.52
2022-10-25T09:48:42.859Z,15.72
2022-10-25T09:51:19.048Z,15.69
2022-10-25T09:53:47.026Z,15.48
2022-10-25T09:56:13.447Z,15.29
2022-10-25T09:58:42.689Z,15.28
2022-10-25T10:01:16.629Z,15.52
2022-10-25T10:03:45.723Z,15.67
2022-10-25T10:06:28.670Z,15.76
2022-10-25T10:09:02.615Z,15.52
2022-10-25T10:11:29.338Z,15.38
2022-10-25T10:14:03.034Z,15.25
2022-10-25T10:16:36.402Z,15.36
2022-10-25T10:19:23.266Z,15.79
2022-10-25T10:21:54.018Z,16.22
2022-10-25T10:24:29.417Z,16.42
2022-10-25T10:26:59.541Z,16.05
2022-10-25T10:29:28.994Z,15.81
2022-10-25T10:32:01.681Z,15.47
2022-10-25T10:34:40.886Z,15.38
2022-10-25T10:37:37.915Z,15.57
2022-10-25T10:40:07.001Z,15.99
2022-10-25T10:42:36.295Z,16.51
2022-10-25T10:45:07.812Z,17.08
2022-10-25T10:47:42.933Z,17.62
2022-10-25T10:50:32.549Z,17.80
2022-10-25T10:53:01.782Z,17.79
2022-10-25T10:55:32.699Z,17.96
2022-10-25T10:58:18.997Z,18.12
2022-10-25T11:00:53.989Z,18.29
2022-10-25T11:03:49.182Z,18.23
2022-10-25T11:06:34.573Z,18.21
2022-10-25T11:09:11.684Z,18.23
2022-10-25T11:11:42.273Z,17.96
2022-10-25T11:14:12.780Z,17.64
2022-10-25T11:17:06.780Z,17.45
2022-10-25T11:19:46.398Z,16.99
2022-10-25T11:22:32.130Z,16.96
2022-10-25T11:25:05.359Z,17.29
2022-10-25T11:27:47.416Z,17.61
2022-10-25T11:30:19.525Z,18.14
2022-10-25T11:33:06.994Z,18.28
2022-10-25T11:35:39.634Z,17.73
2022-10-25T11:38:24.162Z,17.60
2022-10-25T11:41:04.383Z,17.51
2022-10-25T11:44:08.040Z,17.43
2022-10-25T11:47:28.672Z,17.70
2022-10-25T11:50:03.518Z,18.15
2022-10-25T11:52:56.846Z,18.38
2022-10-25T11:55:43.749Z,18.18
2022-10-25T11:58:39.785Z,17.65
2022-10-25T12:01:13.967Z,17.29
2022-10-25T12:03:59.018Z,16.90
2022-10-25T12:06:41.353Z,16.73
2022-10-25T12:09:35.462Z,16.50
2022-10-25T12:12:07.136Z,16.39
2022-10-25T12:14:41.242Z,16.25
2022-10-25T12:17:21.022Z,16.18
2022-10-25T12:19:50.078Z,16.11
2022-10-25T12:22:21.850Z,16.21
2022-10-25T12:24:54.250Z,16.16
2022-10-25T12:27:22.514Z,16.20
2022-10-25T12:29:55.470Z,16.24
2022-10-25T12:32:28.940Z,16.16
2022-10-25T12:34:59.725Z,16.23
2022-10-25T12:37:44.069Z,16.22
2022-10-25T12:40:18.560Z,16.24
2022-10-25T12:42:55.799Z,16.31
2022-10-25T12:45:44.730Z,16.26
2022-10-25T12:48:29.713Z,16.22
2022-10-25T12:51:24.714Z,16.23
2022-10-25T12:54:09.300Z,16.23
2022-10-25T12:57:32.960Z,16.28
2022-10-25T13:00:15.158Z,16.17
2022-10-25T13:02:59.358Z,16.24
2022-10-25T13:05:44.426Z,16.27
2022-10-25T13:08:12.946Z,16.30
2022-10-25T13:10:46.184Z,16.31
2022-10-25T13:13:40.064Z,16.30
2022-10-25T13:16:09.861Z,16.33
2022-10-25T13:18:42.190Z,16.29
2022-10-25T13:21:12.336Z,16.23
2022-10-25T13:23:51.500Z,16.23
2022-10-25T13:26:20.621Z,16.15
2022-10-25T13:28:53.028Z,15.99
2022-10-25T13:31:35.754Z,16.09
2022-10-25T13:34:22.607Z,16.09
2022-10-25T13:36:53.622Z,16.08
2022-10-25T13:39:32.277Z,16.03
2022-10-25T13:42:32.975Z,16.02
2022-10-25T13:45:02.197Z,16.04
2022-10-25T13:47:39.515Z,15.98
2022-10-25T13:50:26.903Z,16.01
2022-10-25T13:52:58.910Z,16.00
2022-10-25T13:55:34.172Z,16.00
2022-10-25T13:58:01.459Z,15.94
2022-10-25T14:00:40.752Z,15.95
2022-10-25T14:03:10.190Z,15.93
2022-10-25T14:05:55.117Z,15.90
2022-10-25T14:08:24.127Z,15.89
2022-10-25T14:10:51.978Z,15.87
2022-10-25T14:13:28.210Z,15.91
2022-10-25T14:16:03.110Z,15.88
2022-10-25T14:18:33.491Z,15.92
2022-10-25T14:21:05.376Z,15.98
2022-10-25T14:23:34.584Z,15.98
2022-10-25T14:26:02.870Z,15.92
2022-10-25T14:28:32.130Z,15.95
2022-10-25T14:31:01.408Z,15.97
2022-10-25T14:33:35.449Z,15.83
2022-10-25T14:36:27.287Z,15.80
2022-10-25T14:38:59.858Z,15.87
2022-10-25T14:41:28.842Z,15.83
2022-10-25T14:43:56.882Z,15.89
2022-10-25T14:46:25.207Z,15.88
2022-10-25T14:48:57.463Z,15.91
2022-10-25T14:51:28.443Z,15.91
2022-10-25T14:54:03.534Z,15.94
2022-10-25T14:56:37.431Z,15.88
2022-10-25T14:59:06.584Z,15.79
2022-10-25T15:01:34.026Z,15.80
2022-10-25T15:04:01.206Z,15.82
2022-10-25T15:06:31.481Z,15.80
2022-10-25T15:09:37.112Z,15.77
2022-10-25T15:12:04.588Z,15.74
2022-10-25T15:14:31.161Z,15.71
2022-10-25T15:17:14.784Z,15.69
2022-10-25T15:20:01.834Z,15.47
2022-10-25T15:22:43.517Z,15.52
2022-10-25T15:25:22.133Z,15.57
2022-10-25T15:27:54.709Z,15.52
2022-10-25T15:31:02.432Z,15.54
2022-10-25T15:33:31.429Z,15.51
2022-10-25T15:36:02.526Z,15.52
2022-10-25T15:38:47.728Z,15.55
2022-10-25T15:41:17.964Z,15.50
2022-10-25T15:43:44.360Z,15.44
2022-10-25T15:46:30.914Z,15.41
2022-10-25T15:49:00.423Z,15.38
2022-10-25T15:51:30.191Z,15.29
2022-10-25T15:53:57.646Z,15.33
2022-10-25T15:56:24.169Z,15.34
2022-10-25T15:58:51.305Z,15.39
2022-10-25T16:01:18.554Z,15.31
2022-10-25T16:03:45.231Z,15.30
2022-10-25T16:06:13.821Z,15.23
2022-10-25T16:08:41.608Z,15.18
2022-10-25T16:11:17.551Z,15.04
2022-10-25T16:13:46.588Z,15.02
2022-10-25T16:16:39.364Z,15.02
2022-10-25T16:19:13.736Z,14.97
2022-10-25T16:21:40.162Z,14.90
2022-10-25T16:24:06.653Z,14.95
2022-10-25T16:26:36.686Z,14.78
2022-10-25T16:29:03.784Z,14.86
2022-10-25T16:31:30.162Z,14.82
2022-10-25T16:33:56.542Z,14.77
2022-10-25T16:36:23.017Z,14.73
2022-10-25T16:38:49.838Z,14.63
2022-10-25T16:41:25.479Z,14.44
2022-10-25T16:43:52.197Z,14.46
2022-10-25T16:46:18.730Z,14.54
2022-10-25T16:48:45.209Z,14.51
2022-10-25T16:51:16.564Z,14.46
2022-10-25T16:53:43.870Z,14.38
2022-10-25T16:56:11.456Z,14.45
2022-10-25T16:58:41.560Z,14.40
2022-10-25T17:01:20.168Z,14.27
2022-10-25T17:03:51.070Z,14.32
2022-10-25T17:09:05.348Z,14.17
2022-10-25T17:11:31.824Z,14.10
2022-10-25T17:13:58.200Z,14.02
2022-10-25T17:16:24.630Z,13.90
2022-10-25T17:18:50.960Z,13.84
2022-10-25T17:21:17.572Z,13.83
2022-10-25T17:23:44.014Z,13.83
2022-10-25T17:26:11.646Z,13.82
2022-10-25T17:28:43.035Z,13.78
2022-10-25T17:31:12.433Z,13.76
2022-10-25T17:33:39.174Z,13.73
2022-10-25T17:36:14.262Z,13.62
2022-10-25T17:38:41.359Z,13.60
2022-10-25T17:41:08.383Z,13.55
2022-10-25T17:43:35.935Z,13.55
2022-10-25T17:46:05.014Z,13.50
2022-10-25T17:48:32.103Z,13.47
2022-10-25T17:51:09.815Z,13.34
2022-10-25T17:53:36.432Z,13.33
2022-10-25T17:56:14.717Z,13.27
2022-10-25T17:58:42.102Z,13.24
2022-10-25T18:01:09.552Z,13.12
2022-10-25T18:03:36.274Z,13.10
2022-10-25T18:06:10.385Z,13.02
2022-10-25T18:08:37.081Z,12.92
2022-10-25T18:11:22.768Z,12.89
2022-10-25T18:13:52.138Z,12.83
2022-10-25T18:16:18.783Z,12.73
2022-10-25T18:18:45.311Z,12.66
2022-10-25T18:21:14.031Z,12.63
2022-10-25T18:23:41.519Z,12.60
2022-10-25T18:26:10.887Z,12.47
2022-10-25T18:28:38.037Z,12.44
2022-10-25T18:31:10.387Z,12.44
2022-10-25T18:33:39.483Z,12.45
2022-10-25T18:36:09.731Z,12.37
2022-10-25T18:38:36.529Z,12.30
2022-10-25T18:41:07.914Z,12.18
2022-10-25T18:43:35.145Z,12.13
2022-10-25T18:46:02.237Z,12.11
2022-10-25T18:48:28.885Z,12.07
2022-10-25T18:50:55.596Z,12.00
2022-10-25T18:53:22.566Z,12.05
2022-10-25T18:55:53.067Z,12.07
2022-10-25T18:58:19.596Z,12.12
2022-10-25T19:00:46.932Z,12.15
2022-10-25T19:03:14.990Z,12.14
2022-10-25T19:05:42.362Z,12.09
2022-10-25T19:08:12.385Z,12.04
2022-10-25T19:10:40.076Z,11.99
2022-10-25T19:13:07.946Z,11.92
2022-10-25T19:15:34.511Z,11.85
2022-10-25T19:18:01.115Z,11.83
2022-10-25T19:20:27.531Z,11.69
2022-10-25T19:22:58.476Z,11.73
2022-10-25T19:25:28.680Z,11.64
2022-10-25T19:27:56.341Z,11.61
2022-10-25T19:30:22.996Z,11.57
2022-10-25T19:32:49.669Z,11.59
2022-10-25T19:35:16.558Z,11.59
2022-10-25T19:37:43.112Z,11.59
2022-10-25T19:40:10.769Z,11.54
2022-10-25T19:42:37.826Z,11.51
2022-10-25T19:45:05.390Z,11.44
2022-10-25T19:47:34.305Z,11.27
2022-10-25T19:50:01.404Z,11.31
2022-10-25T19:52:27.855Z,11.24
2022-10-25T19:54:54.337Z,11.23
2022-10-25T19:57:20.841Z,11.11
2022-10-25T19:59:47.216Z,11.10
2022-10-25T20:02:13.688Z,11.09
2022-10-25T20:04:40.147Z,11.10
2022-10-25T20:07:06.525Z,11.16
2022-10-25T20:09:32.885Z,11.21
2022-10-25T20:11:59.339Z,11.23
2022-10-25T20:14:25.786Z,11.29
2022-10-25T20:16:52.148Z,11.27
2022-10-25T20:19:18.624Z,11.25
2022-10-25T20:21:44.988Z,11.23
2022-10-25T20:24:12.470Z,11.24
2022-10-25T20:26:41.210Z,11.16
2022-10-25T20:29:17.114Z,11.23
2022-10-25T20:31:47.091Z,11.20
2022-10-25T20:34:13.518Z,11.16
2022-10-25T20:36:39.925Z,11.06
2022-10-25T20:39:06.680Z,10.99
2022-10-25T20:41:35.290Z,10.85
2022-10-25T20:44:03.768Z,10.85
2022-10-25T20:46:31.058Z,10.78
2022-10-25T20:48:58.756Z,10.76
2022-10-25T20:51:25.311Z,10.74
2022-10-25T20:53:51.919Z,10.77
2022-10-25T20:56:20.975Z,10.74
2022-10-25T20:58:47.614Z,10.70
2022-10-25T21:01:14.494Z,10.65
2022-10-25T21:03:41.214Z,10.64
2022-10-25T21:06:10.543Z,10.63
2022-10-25T21:08:37.746Z,10.62
2022-10-25T21:11:06.171Z,10.60
2022-10-25T21:13:34.944Z,10.62
2022-10-25T21:16:06.080Z,10.60
2022-10-25T21:18:32.596Z,10.60
2022-10-25T21:21:08.031Z,10.58
2022-10-25T21:23:34.929Z,10.60
2022-10-25T21:26:03.683Z,10.63
2022-10-25T21:28:38.544Z,10.58
2022-10-25T21:31:08.228Z,10.52
2022-10-25T21:33:34.764Z,10.48
2022-10-25T21:36:09.896Z,10.50
2022-10-25T21:38:36.485Z,10.46
2022-10-25T21:41:13.091Z,10.43
2022-10-25T21:43:45.387Z,10.45
2022-10-25T21:46:13.155Z,10.44
2022-10-25T21:48:39.686Z,10.43
2022-10-25T21:51:06.844Z,10.40
2022-10-25T21:53:34.307Z,10.37
2022-10-25T21:56:31.203Z,10.35
2022-10-25T21:58:59.375Z,10.31
2022-10-25T22:01:28.736Z,10.30
2022-10-25T22:03:55.533Z,10.31
2022-10-25T22:06:24.315Z,10.29
2022-10-25T22:08:52.693Z,10.24
2022-10-25T22:11:25.270Z,10.18
2022-10-25T22:13:57.403Z,10.26
2022-10-25T22:16:25.234Z,10.30
2022-10-25T22:18:54.770Z,10.29
2022-10-25T22:21:21.280Z,10.16
2022-10-25T22:23:48.107Z,10.25
2022-10-25T22:26:17.477Z,10.26
2022-10-25T22:28:46.317Z,10.26
2022-10-25T22:31:15.795Z,10.22
2022-10-25T22:33:43.757Z,10.12
2022-10-25T22:36:13.332Z,10.09
2022-10-25T22:38:39.898Z,10.06
2022-10-25T22:41:10.080Z,9.93
2022-10-25T22:43:37.702Z,9.98
2022-10-25T22:46:07.644Z,9.98
2022-10-25T22:48:36.805Z,9.74
2022-10-25T22:51:04.062Z,9.96
2022-10-25T22:53:30.870Z,9.94
2022-10-25T22:56:03.532Z,9.90
2022-10-25T22:58:34.584Z,9.85
2022-10-25T23:01:06.694Z,9.84
2022-10-25T23:03:34.673Z,9.84
2022-10-25T23:06:02.579Z,9.81
2022-10-25T23:08:29.758Z,9.76
2022-10-25T23:11:13.067Z,9.76
2022-10-25T23:13:39.621Z,9.76
2022-10-25T23:16:06.456Z,9.71
2022-10-25T23:18:33.645Z,9.72
2022-10-25T23:21:01.858Z,9.73
2022-10-25T23:23:32.689Z,9.76
2022-10-25T23:26:00.080Z,9.77
2022-10-25T23:28:28.009Z,9.84
2022-10-25T23:30:54.397Z,9.89
2022-10-25T23:33:20.733Z,9.90
2022-10-25T23:35:47.162Z,9.91
2022-10-25T23:38:14.227Z,9.89
2022-10-25T23:40:46.522Z,9.87
2022-10-25T23:43:12.903Z,9.78
2022-10-25T23:45:41.777Z,9.86
2022-10-25T23:48:08.114Z,9.85
2022-10-25T23:50:34.608Z,9.88
2022-10-25T23:53:00.951Z,9.94
2022-10-25T23:55:27.382Z,9.96
2022-10-25T23:57:59.170Z,9.98
